Time;durP1;ratioP1;P1;durP2;ratioP2;P2;SDS_P1;SDS_P2;PMS_P1;PMS_P2;Temp;Humidity;BMP_temperature;BMP_pressure;BME280_temperature;BME280_humidity;BME280_pressure;Samples;Min_cycle;Max_cycle;Signal;HPM_P1;HPM_P2
2021/05/04 00:02:00;;;;;;;4.10;3.67;;;13.30;56.60;;;;;;5034579;28;20184;-81
2021/05/04 00:04:25;;;;;;;4.82;3.10;;;13.30;56.90;;;;;;5036184;28;20201;-81
2021/05/04 00:06:52;;;;;;;4.30;2.57;;;13.30;57.70;;;;;;5034991;28;20212;-80
2021/05/04 00:09:18;;;;;;;3.15;2.53;;;13.10;58.60;;;;;;5035785;28;20177;-81
2021/05/04 00:11:43;;;;;;;5.85;3.10;;;13.00;59.50;;;;;;5034825;28;20649;-80
2021/05/04 00:14:09;;;;;;;7.70;3.00;;;12.90;60.40;;;;;;5035999;28;20192;-80
2021/05/04 00:16:35;;;;;;;8.43;4.03;;;12.80;60.80;;;;;;5036100;28;20186;-80
2021/05/04 00:19:00;;;;;;;5.80;2.77;;;12.80;62.00;;;;;;5036517;28;20186;-81
2021/05/04 00:21:26;;;;;;;4.60;2.80;;;12.60;62.80;;;;;;5036580;28;20192;-81
2021/05/04 00:23:52;;;;;;;7.83;3.27;;;12.60;63.60;;;;;;5035689;28;20275;-80
2021/05/04 00:26:17;;;;;;;11.20;3.80;;;12.40;64.00;;;;;;5034583;28;20209;-80
2021/05/04 00:28:43;;;;;;;5.20;3.67;;;12.40;65.00;;;;;;5036291;28;20212;-81
2021/05/04 00:31:09;;;;;;;5.47;3.30;;;12.40;65.90;;;;;;5036570;28;20177;-80
2021/05/04 00:33:35;;;;;;;5.20;2.80;;;12.30;66.20;;;;;;5036378;28;20665;-81
2021/05/04 00:36:01;;;;;;;3.27;2.97;;;12.00;66.30;;;;;;5034008;28;20189;-80
2021/05/04 00:38:26;;;;;;;6.73;3.57;;;11.80;68.20;;;;;;5034432;28;20423;-80
2021/05/04 00:40:52;;;;;;;5.30;2.83;;;11.60;68.40;;;;;;5033415;28;20182;-80
2021/05/04 00:43:28;;;;;;;7.07;3.47;;;11.50;69.20;;;;;;5033999;28;20204;-80
2021/05/04 00:45:54;;;;;;;7.75;3.15;;;11.40;69.10;;;;;;5033666;28;20300;-80
2021/05/04 00:48:20;;;;;;;3.78;2.85;;;11.50;69.80;;;;;;5032903;28;20174;-80
2021/05/04 00:50:46;;;;;;;8.20;2.67;;;11.50;69.60;;;;;;5032661;28;20251;-80
2021/05/04 00:53:12;;;;;;;3.97;3.58;;;11.50;69.70;;;;;;5033049;28;20194;-80
2021/05/04 00:55:38;;;;;;;5.40;2.80;;;11.30;69.00;;;;;;5032806;28;20178;-81
2021/05/04 00:58:05;;;;;;;7.05;2.95;;;11.50;69.50;;;;;;5033128;28;20482;-80
2021/05/04 01:00:30;;;;;;;5.70;2.40;;;11.40;69.20;;;;;;5031893;28;20312;-81
2021/05/04 01:03:02;;;;;;;4.90;4.18;;;11.40;69.10;;;;;;5035238;28;20240;-81
2021/05/04 01:05:28;;;;;;;3.38;2.85;;;11.40;69.30;;;;;;5037339;28;20174;-80
2021/05/04 01:07:54;;;;;;;7.78;3.25;;;11.30;69.30;;;;;;5035955;28;20202;-80
2021/05/04 01:10:20;;;;;;;10.73;3.20;;;11.00;70.10;;;;;;5037653;28;20182;-80
2021/05/04 01:12:46;;;;;;;5.60;3.20;;;11.00;70.60;;;;;;5036616;28;20582;-80
2021/05/04 01:15:12;;;;;;;4.35;2.95;;;10.80;71.30;;;;;;5036025;28;20409;-80
2021/05/04 01:17:38;;;;;;;3.65;3.35;;;10.80;72.00;;;;;;5037573;28;20235;-80
2021/05/04 01:20:05;;;;;;;4.23;2.93;;;10.80;72.20;;;;;;5035978;28;20193;-80
2021/05/04 01:22:31;;;;;;;5.50;2.83;;;10.90;72.60;;;;;;5036482;28;20201;-81
2021/05/04 01:24:57;;;;;;;3.90;2.67;;;10.90;72.20;;;;;;5036231;28;20186;-80
2021/05/04 01:27:22;;;;;;;4.47;3.00;;;10.80;71.90;;;;;;5038533;28;20206;-80
2021/05/04 01:29:48;;;;;;;2.80;2.17;;;10.90;71.70;;;;;;5039390;28;20261;-80
2021/05/04 01:32:14;;;;;;;6.63;2.60;;;11.00;71.40;;;;;;5038611;28;20190;-80
2021/05/04 01:34:40;;;;;;;2.65;2.45;;;11.00;71.20;;;;;;5040676;28;20193;-80
2021/05/04 01:37:06;;;;;;;4.10;2.40;;;11.10;71.40;;;;;;5039155;28;20182;-80
2021/05/04 01:39:47;;;;;;;2.80;2.50;;;11.20;71.10;;;;;;5037567;28;20192;-80
2021/05/04 01:42:14;;;;;;;3.45;3.08;;;11.00;71.20;;;;;;5034818;28;20201;-81
2021/05/04 01:44:40;;;;;;;2.38;2.17;;;11.10;71.70;;;;;;5036340;28;20184;-80
2021/05/04 01:47:06;;;;;;;4.07;2.60;;;11.00;71.30;;;;;;5037095;28;20219;-80
2021/05/04 01:49:32;;;;;;;5.97;3.43;;;11.10;71.80;;;;;;5037837;28;20265;-78
2021/05/04 01:51:59;;;;;;;14.13;3.05;;;11.10;71.10;;;;;;5035287;28;20190;-80
2021/05/04 01:54:26;;;;;;;4.45;2.47;;;10.90;71.00;;;;;;5038018;28;20544;-78
2021/05/04 01:56:54;;;;;;;3.85;2.80;;;10.90;71.40;;;;;;5034098;28;20178;-78
2021/05/04 01:59:21;;;;;;;3.20;2.38;;;11.00;71.00;;;;;;5034044;28;20354;-78
2021/05/04 02:01:47;;;;;;;2.90;2.35;;;11.00;70.40;;;;;;5033319;28;20552;-79
2021/05/04 02:04:13;;;;;;;5.30;3.20;;;11.00;70.50;;;;;;5035671;28;20205;-78
2021/05/04 02:06:40;;;;;;;3.83;2.80;;;11.10;70.20;;;;;;5034691;28;20837;-78
2021/05/04 02:09:07;;;;;;;22.65;3.15;;;11.10;69.80;;;;;;5035746;28;20179;-78
2021/05/04 02:11:33;;;;;;;7.13;3.03;;;10.80;69.60;;;;;;5034423;28;20174;-77
2021/05/04 02:13:59;;;;;;;5.05;2.35;;;11.00;69.90;;;;;;5033178;28;20250;-78
2021/05/04 02:16:26;;;;;;;7.70;2.50;;;11.10;69.80;;;;;;5034670;28;20189;-78
2021/05/04 02:18:52;;;;;;;6.25;3.13;;;11.10;69.20;;;;;;5035174;28;20417;-79
2021/05/04 02:21:17;;;;;;;2.30;2.10;;;11.10;69.20;;;;;;5034898;28;20193;-79
2021/05/04 02:23:45;;;;;;;4.33;3.23;;;11.10;69.20;;;;;;5035402;28;20205;-79
2021/05/04 02:26:12;;;;;;;2.45;2.17;;;11.10;69.20;;;;;;5035325;28;20210;-79
2021/05/04 02:28:38;;;;;;;3.00;2.70;;;11.10;68.70;;;;;;5034829;28;20182;-78
2021/05/04 02:31:04;;;;;;;2.60;2.40;;;10.80;69.00;;;;;;5036148;28;20170;-79
2021/05/04 02:33:30;;;;;;;2.63;2.42;;;10.90;69.40;;;;;;5038732;28;20194;-79
2021/05/04 02:35:57;;;;;;;3.73;1.93;;;10.90;69.40;;;;;;5035797;28;20184;-78
2021/05/04 02:38:23;;;;;;;2.45;2.05;;;11.00;69.50;;;;;;5035819;28;20213;-79
2021/05/04 02:40:48;;;;;;;2.67;2.33;;;11.20;69.10;;;;;;5032722;28;20177;-79
2021/05/04 02:43:15;;;;;;;2.67;1.73;;;11.40;68.80;;;;;;5015997;28;20524;-79
2021/05/04 02:45:41;;;;;;;3.88;1.73;;;11.40;68.10;;;;;;5015648;28;20272;-79
2021/05/04 02:48:06;;;;;;;2.43;2.20;;;11.40;67.90;;;;;;5021791;28;20213;-78
2021/05/04 02:50:32;;;;;;;7.10;2.67;;;11.30;67.90;;;;;;5027929;28;20406;-79
2021/05/04 02:52:58;;;;;;;3.10;2.00;;;11.30;68.10;;;;;;5020198;28;20452;-78
2021/05/04 02:55:24;;;;;;;2.87;1.83;;;11.50;68.00;;;;;;5014501;28;20179;-79
2021/05/04 02:57:50;;;;;;;8.98;1.88;;;11.40;67.40;;;;;;5015971;28;20552;-79
2021/05/04 03:00:19;;;;;;;2.97;1.63;;;11.50;67.50;;;;;;5016986;28;20269;-79
2021/05/04 03:02:45;;;;;;;2.20;2.00;;;11.40;67.10;;;;;;5024511;28;20468;-78
2021/05/04 03:05:11;;;;;;;1.93;1.80;;;11.50;67.00;;;;;;5034850;28;20284;-79
2021/05/04 03:07:37;;;;;;;3.57;2.30;;;11.20;66.80;;;;;;5035873;28;20971;-78
2021/05/04 03:10:04;;;;;;;2.90;1.80;;;11.40;66.90;;;;;;5035591;28;20469;-79
2021/05/04 03:12:29;;;;;;;4.05;1.80;;;11.50;66.80;;;;;;5037546;28;20182;-79
2021/05/04 03:14:55;;;;;;;2.60;2.30;;;11.70;66.50;;;;;;5038334;28;20323;-79
2021/05/04 03:17:21;;;;;;;3.23;1.80;;;11.70;66.20;;;;;;5040598;28;20174;-80
2021/05/04 03:19:46;;;;;;;4.70;1.77;;;11.70;66.00;;;;;;5045750;28;20174;-79
2021/05/04 03:22:12;;;;;;;1.90;1.57;;;11.70;66.00;;;;;;5049281;28;20549;-80
2021/05/04 03:24:38;;;;;;;6.40;2.00;;;11.70;66.60;;;;;;5035713;28;20268;-79
2021/05/04 03:27:04;;;;;;;2.07;1.67;;;11.70;67.00;;;;;;5033695;28;20202;-78
2021/05/04 03:29:29;;;;;;;2.20;1.50;;;11.70;66.60;;;;;;5033428;28;20166;-79
2021/05/04 03:31:55;;;;;;;3.33;2.17;;;11.70;66.60;;;;;;5031813;28;20798;-78
2021/05/04 03:34:21;;;;;;;1.90;1.40;;;11.70;66.50;;;;;;5033696;28;20576;-78
2021/05/04 03:36:47;;;;;;;3.10;1.70;;;11.70;66.50;;;;;;5032062;28;20209;-78
2021/05/04 03:39:12;;;;;;;4.50;1.97;;;11.60;66.60;;;;;;5033929;28;20868;-79
2021/05/04 03:41:38;;;;;;;2.03;1.73;;;11.60;66.70;;;;;;5031880;28;20512;-78
2021/05/04 03:44:05;;;;;;;2.30;2.03;;;11.50;66.80;;;;;;5033588;28;20629;-78
2021/05/04 03:46:30;;;;;;;2.80;2.42;;;11.70;67.10;;;;;;5031992;28;20296;-78
2021/05/04 03:48:56;;;;;;;1.43;1.33;;;11.90;66.90;;;;;;5031988;28;20623;-79
2021/05/04 03:51:22;;;;;;;1.97;1.80;;;11.90;66.60;;;;;;5032034;28;20174;-79
2021/05/04 03:53:47;;;;;;;1.57;1.40;;;11.80;66.40;;;;;;5032245;28;20200;-78
2021/05/04 03:56:13;;;;;;;5.40;1.97;;;11.70;66.60;;;;;;5033455;28;20653;-78
2021/05/04 03:58:39;;;;;;;9.63;1.90;;;11.80;66.70;;;;;;5032440;28;20178;-78
2021/05/04 04:01:05;;;;;;;1.93;1.70;;;11.60;66.80;;;;;;5032305;28;20619;-78
2021/05/04 04:03:30;;;;;;;5.70;1.53;;;11.60;67.50;;;;;;5032441;28;20543;-78
2021/05/04 04:05:56;;;;;;;4.27;1.93;;;11.60;68.40;;;;;;5035922;28;20178;-79
2021/05/04 04:08:23;;;;;;;1.83;1.73;;;11.70;69.10;;;;;;5036426;28;20181;-80
2021/05/04 04:10:48;;;;;;;2.38;1.30;;;11.80;68.90;;;;;;5035791;28;20236;-79
2021/05/04 04:13:14;;;;;;;5.20;2.00;;;11.60;68.70;;;;;;5037582;28;20689;-79
2021/05/04 04:15:40;;;;;;;3.40;1.90;;;11.70;69.10;;;;;;5034620;28;20641;-78
2021/05/04 04:18:06;;;;;;;5.55;3.20;;;11.70;69.70;;;;;;5034671;28;20170;-78
2021/05/04 04:20:32;;;;;;;4.80;2.07;;;11.80;71.00;;;;;;5032621;28;20186;-78
2021/05/04 04:22:58;;;;;;;3.03;1.88;;;11.60;72.00;;;;;;5031859;28;20443;-79
2021/05/04 04:25:24;;;;;;;2.17;1.97;;;11.60;73.20;;;;;;5032867;28;20182;-78
2021/05/04 04:27:49;;;;;;;6.03;2.47;;;11.60;74.50;;;;;;5032111;28;20216;-78
2021/05/04 04:30:16;;;;;;;1.77;1.67;;;11.50;75.40;;;;;;5033056;28;20638;-79
2021/05/04 04:32:45;;;;;;;3.50;2.25;;;11.40;76.40;;;;;;5032303;28;20193;-78
2021/05/04 04:35:11;;;;;;;6.68;2.92;;;11.40;77.40;;;;;;5031675;28;20178;-79
2021/05/04 04:37:37;;;;;;;3.90;2.20;;;11.20;78.00;;;;;;5037713;28;20177;-79
2021/05/04 04:40:04;;;;;;;4.28;2.28;;;11.00;78.90;;;;;;5039071;28;20570;-79
2021/05/04 04:42:30;;;;;;;3.40;2.90;;;11.00;79.70;;;;;;5037692;28;20689;-78
2021/05/04 04:44:56;;;;;;;3.20;2.50;;;11.00;80.10;;;;;;5039286;28;20182;-79
2021/05/04 04:47:22;;;;;;;2.80;2.37;;;10.90;80.40;;;;;;5036338;28;20205;-78
2021/05/04 04:49:48;;;;;;;7.23;2.53;;;10.80;81.00;;;;;;5035688;28;20186;-78
2021/05/04 04:52:14;;;;;;;3.40;2.57;;;10.90;81.60;;;;;;5035054;28;20531;-79
2021/05/04 04:54:40;;;;;;;2.88;2.50;;;10.70;81.90;;;;;;5035592;28;20920;-78
2021/05/04 04:57:05;;;;;;;4.13;3.10;;;10.70;82.70;;;;;;5035566;28;20285;-78
2021/05/04 04:59:33;;;;;;;4.33;2.90;;;10.70;83.20;;;;;;5036647;28;20548;-78
2021/05/04 05:01:58;;;;;;;5.50;2.70;;;10.80;83.20;;;;;;5034550;28;20448;-78
2021/05/04 05:04:24;;;;;;;5.73;2.93;;;10.60;83.00;;;;;;5035011;28;20189;-78
2021/05/04 05:06:51;;;;;;;3.10;2.70;;;10.70;83.20;;;;;;5035170;28;20213;-78
2021/05/04 05:09:17;;;;;;;2.65;2.42;;;10.80;83.10;;;;;;5038629;28;20583;-79
2021/05/04 05:11:43;;;;;;;3.38;3.05;;;10.70;82.40;;;;;;5038947;28;20174;-80
2021/05/04 05:14:09;;;;;;;2.80;2.60;;;10.90;82.40;;;;;;5040012;28;20170;-79
2021/05/04 05:16:36;;;;;;;4.33;2.70;;;10.90;81.80;;;;;;5039382;28;20184;-79
2021/05/04 05:19:03;;;;;;;5.60;2.63;;;10.90;81.50;;;;;;5038921;28;20185;-80
2021/05/04 05:21:31;;;;;;;4.63;2.55;;;10.90;81.10;;;;;;5040525;28;20189;-79
2021/05/04 05:23:59;;;;;;;4.43;2.67;;;10.90;81.30;;;;;;5050070;28;20182;-79
2021/05/04 05:26:25;;;;;;;3.38;2.60;;;10.80;81.30;;;;;;5042175;28;20217;-79
2021/05/04 05:28:55;;;;;;;6.73;2.67;;;11.00;81.50;;;;;;5037310;28;20173;-80
2021/05/04 05:31:22;;;;;;;6.30;3.00;;;10.90;80.60;;;;;;5040444;28;20928;-80
2021/05/04 05:33:49;;;;;;;10.25;2.70;;;10.90;80.70;;;;;;5042134;28;20202;-80
2021/05/04 05:36:15;;;;;;;7.30;2.47;;;10.90;81.20;;;;;;5043182;28;20173;-79
2021/05/04 05:38:41;;;;;;;7.95;2.85;;;10.90;81.50;;;;;;5044065;28;20724;-80
2021/05/04 05:41:07;;;;;;;11.63;2.80;;;11.00;81.60;;;;;;5038939;28;20220;-81
2021/05/04 05:43:32;;;;;;;10.93;3.60;;;10.90;81.80;;;;;;5041033;28;20193;-81
2021/05/04 05:45:59;;;;;;;9.80;3.17;;;11.00;81.60;;;;;;5044084;28;20423;-81
2021/05/04 05:48:25;;;;;;;10.77;3.05;;;11.00;81.60;;;;;;5042004;28;20412;-80
2021/05/04 05:50:51;;;;;;;11.25;3.35;;;11.00;81.40;;;;;;5046490;28;20643;-79
2021/05/04 05:53:18;;;;;;;9.40;2.83;;;11.10;81.70;;;;;;5044905;28;20245;-79
2021/05/04 05:55:45;;;;;;;11.77;3.17;;;11.00;81.30;;;;;;5039826;28;20444;-79
2021/05/04 05:58:11;;;;;;;14.27;3.15;;;11.00;81.50;;;;;;5038671;28;20532;-80
2021/05/04 06:00:37;;;;;;;6.65;2.45;;;11.10;81.50;;;;;;5039194;28;20185;-80
2021/05/04 06:03:04;;;;;;;10.97;2.90;;;11.00;81.40;;;;;;5039116;28;20819;-80
2021/05/04 06:05:33;;;;;;;15.93;3.80;;;11.00;81.70;;;;;;5038971;28;20544;-80
2021/05/04 06:08:00;;;;;;;15.93;3.60;;;11.10;81.90;;;;;;5036995;28;20576;-81
2021/05/04 06:10:27;;;;;;;9.85;3.20;;;11.10;81.80;;;;;;5038961;28;20220;-81
2021/05/04 06:13:06;;;;;;;16.27;4.20;;;11.10;81.90;;;;;;5039437;28;20193;-80
2021/05/04 06:15:39;;;;;;;10.32;3.60;;;11.00;81.80;;;;;;5039971;28;20166;-80
2021/05/04 06:18:05;;;;;;;15.95;3.60;;;11.00;82.00;;;;;;5038598;28;20182;-80
2021/05/04 06:20:31;;;;;;;20.00;3.72;;;10.90;82.10;;;;;;5039710;28;20178;-80
2021/05/04 06:22:57;;;;;;;11.10;3.10;;;10.90;82.50;;;;;;5040015;28;20232;-80
2021/05/04 06:25:23;;;;;;;8.53;3.30;;;10.90;82.80;;;;;;5040448;28;20500;-79
2021/05/04 06:27:49;;;;;;;11.40;4.30;;;10.90;83.10;;;;;;5043820;28;20689;-80
2021/05/04 06:30:16;;;;;;;8.35;4.18;;;10.80;83.20;;;;;;5044172;28;20427;-80
2021/05/04 06:32:42;;;;;;;11.13;4.07;;;10.90;82.80;;;;;;5047656;28;20198;-80
2021/05/04 06:35:09;;;;;;;16.02;3.50;;;11.00;82.00;;;;;;5046785;28;20174;-80
2021/05/04 06:37:35;;;;;;;13.90;3.90;;;11.10;82.40;;;;;;5040231;28;20179;-80
2021/05/04 06:40:01;;;;;;;10.50;3.87;;;11.20;82.30;;;;;;5034267;28;20618;-80
2021/05/04 06:42:27;;;;;;;8.60;3.42;;;11.20;82.00;;;;;;5043856;28;20233;-80
2021/05/04 06:44:53;;;;;;;7.33;3.20;;;11.30;81.70;;;;;;5045244;28;20178;-80
2021/05/04 06:47:19;;;;;;;5.53;2.80;;;11.30;80.10;;;;;;5047663;28;20204;-81
2021/05/04 06:49:44;;;;;;;15.13;2.93;;;11.40;79.40;;;;;;5048935;28;20600;-81
2021/05/04 06:52:11;;;;;;;25.27;5.20;;;11.40;78.80;;;;;;5047727;28;20583;-81
2021/05/04 06:54:37;;;;;;;10.63;2.95;;;11.40;78.20;;;;;;5054238;28;20527;-81
2021/05/04 06:57:03;;;;;;;12.67;3.80;;;11.60;78.00;;;;;;5055261;28;20217;-81
2021/05/04 06:59:28;;;;;;;10.07;3.13;;;11.60;77.70;;;;;;5043959;28;20425;-81
2021/05/04 07:01:56;;;;;;;7.03;2.60;;;11.60;78.20;;;;;;5038362;28;20261;-81
2021/05/04 07:04:21;;;;;;;7.00;2.03;;;11.70;77.40;;;;;;5042231;28;20715;-81
2021/05/04 07:06:47;;;;;;;5.40;2.10;;;11.60;76.70;;;;;;5046871;28;20210;-80
2021/05/04 07:09:13;;;;;;;12.73;3.17;;;11.60;76.70;;;;;;5051051;28;20182;-80
2021/05/04 07:11:39;;;;;;;8.52;1.63;;;11.60;77.00;;;;;;5051322;28;20181;-79
2021/05/04 07:14:06;;;;;;;6.87;2.00;;;11.60;76.60;;;;;;5044590;28;20182;-81
2021/05/04 07:16:32;;;;;;;5.00;1.85;;;11.80;76.40;;;;;;5043187;28;20188;-80
2021/05/04 07:18:57;;;;;;;8.85;2.28;;;12.10;75.50;;;;;;5047645;28;20185;-80
2021/05/04 07:21:23;;;;;;;16.83;3.20;;;12.40;74.40;;;;;;5057064;28;20177;-80
2021/05/04 07:23:49;;;;;;;6.80;1.80;;;12.70;73.50;;;;;;5055497;28;20190;-81
2021/05/04 07:26:15;;;;;;;4.00;1.60;;;13.10;72.70;;;;;;5041628;28;20548;-80
2021/05/04 07:28:41;;;;;;;3.25;1.17;;;13.10;71.40;;;;;;5035768;28;20607;-81
2021/05/04 07:31:07;;;;;;;3.40;1.90;;;13.10;71.40;;;;;;5033183;28;20189;-80
2021/05/04 07:33:33;;;;;;;1.90;1.60;;;13.10;71.20;;;;;;5037488;28;20429;-80
2021/05/04 07:35:58;;;;;;;3.70;1.90;;;13.20;71.00;;;;;;5036907;28;20449;-81
2021/05/04 07:38:25;;;;;;;3.90;1.93;;;12.90;71.20;;;;;;5037077;28;20413;-81
2021/05/04 07:40:51;;;;;;;6.45;3.30;;;12.80;72.10;;;;;;5036729;28;20618;-80
2021/05/04 07:43:17;;;;;;;6.53;2.83;;;12.70;72.90;;;;;;5040164;28;20225;-79
2021/05/04 07:45:42;;;;;;;7.63;2.40;;;12.40;73.40;;;;;;5039481;28;20181;-79
2021/05/04 07:48:10;;;;;;;11.53;2.70;;;12.30;74.40;;;;;;5040705;28;20207;-80
2021/05/04 07:50:37;;;;;;;6.68;2.50;;;12.30;75.00;;;;;;5035240;28;20177;-80
2021/05/04 07:53:04;;;;;;;15.10;4.05;;;12.20;75.60;;;;;;5036962;28;20198;-80
2021/05/04 07:55:30;;;;;;;19.50;3.13;;;12.10;76.40;;;;;;5035101;28;20177;-80
2021/05/04 07:57:55;;;;;;;13.40;3.88;;;11.90;76.80;;;;;;5037677;28;20182;-79
2021/05/04 08:00:22;;;;;;;19.63;3.30;;;11.80;77.70;;;;;;5036787;28;20184;-80
2021/05/04 08:02:47;;;;;;;10.82;3.45;;;11.80;78.10;;;;;;5035367;28;20220;-80
2021/05/04 08:05:14;;;;;;;13.40;3.73;;;11.80;78.20;;;;;;5035636;28;20182;-80
2021/05/04 08:07:39;;;;;;;14.23;3.22;;;11.70;78.60;;;;;;5035420;28;20523;-79
2021/05/04 08:10:08;;;;;;;19.07;3.97;;;11.60;78.90;;;;;;5037663;28;20204;-80
2021/05/04 08:12:34;;;;;;;12.43;3.85;;;11.60;79.10;;;;;;5046391;28;20438;-79
2021/05/04 08:15:02;;;;;;;10.80;2.95;;;11.60;79.40;;;;;;5037562;28;20189;-80
2021/05/04 08:17:30;;;;;;;22.08;3.35;;;11.70;78.60;;;;;;5036397;28;20174;-80
2021/05/04 08:20:03;;;;;;;9.20;2.83;;;11.70;76.60;;;;;;5034775;28;20182;-80
2021/05/04 08:22:28;;;;;;;14.73;2.78;;;11.80;75.30;;;;;;5033626;28;20197;-80
2021/05/04 08:24:56;;;;;;;5.93;2.27;;;12.10;74.60;;;;;;5035339;28;20272;-80
2021/05/04 08:27:21;;;;;;;11.93;3.13;;;12.30;73.60;;;;;;5034766;28;20213;-80
2021/05/04 08:29:47;;;;;;;14.70;2.90;;;12.40;72.20;;;;;;5033901;28;20186;-79
2021/05/04 08:32:13;;;;;;;13.23;3.00;;;12.70;71.60;;;;;;5036151;28;20292;-80
2021/05/04 08:34:39;;;;;;;15.43;2.90;;;12.60;69.90;;;;;;5036149;28;20645;-80
2021/05/04 08:37:05;;;;;;;13.27;2.83;;;12.50;70.20;;;;;;5035584;28;20174;-80
2021/05/04 08:39:31;;;;;;;11.45;2.83;;;12.40;70.90;;;;;;5034503;28;20247;-79
2021/05/04 08:41:56;;;;;;;11.20;2.70;;;12.30;71.50;;;;;;5027165;28;20206;-80
2021/05/04 08:44:22;;;;;;;17.07;3.43;;;12.40;72.00;;;;;;5036184;28;20425;-81
2021/05/04 08:46:50;;;;;;;12.37;3.87;;;12.20;71.10;;;;;;5037483;28;20217;-80
2021/05/04 08:49:17;;;;;;;18.00;3.65;;;12.30;71.50;;;;;;5035284;28;20439;-80
2021/05/04 08:51:44;;;;;;;6.95;2.33;;;12.50;71.00;;;;;;5035170;28;20182;-80
2021/05/04 08:54:11;;;;;;;13.32;2.80;;;12.60;70.10;;;;;;5038123;28;20174;-80
2021/05/04 08:56:40;;;;;;;15.25;3.08;;;12.60;70.30;;;;;;5037392;28;20573;-80
2021/05/04 08:59:06;;;;;;;28.02;3.42;;;12.50;69.90;;;;;;5037384;28;20268;-80
2021/05/04 09:01:32;;;;;;;8.52;3.20;;;12.30;69.70;;;;;;5037653;28;20186;-79
2021/05/04 09:04:02;;;;;;;13.83;3.07;;;12.20;70.40;;;;;;5036168;28;20196;-79
2021/05/04 09:06:32;;;;;;;21.80;3.10;;;12.20;70.40;;;;;;5038450;28;20209;-79
2021/05/04 09:11:56;;;;;;;6.82;2.90;;;12.10;70.80;;;;;;5036844;28;20166;-80
2021/05/04 09:17:20;;;;;;;13.48;3.28;;;12.00;70.50;;;;;;5019845;28;20202;-80
2021/05/04 09:22:42;;;;;;;4.88;3.15;;;12.10;69.00;;;;;;5041117;28;20285;-80
2021/05/04 09:25:31;;;;;;;11.27;2.78;;;12.20;68.40;;;;;;5046054;28;20162;-79
2021/05/04 09:28:02;;;;;;;7.65;2.60;;;12.20;67.60;;;;;;5043120;28;20205;-80
2021/05/04 09:30:28;;;;;;;12.90;2.20;;;12.10;65.40;;;;;;5037270;28;20192;-80
2021/05/04 09:32:54;;;;;;;8.73;1.95;;;12.30;64.80;;;;;;5037919;28;20194;-79
2021/05/04 09:35:29;;;;;;;8.83;2.60;;;12.40;64.20;;;;;;5037805;28;20180;-80
2021/05/04 09:38:16;;;;;;;5.20;1.90;;;12.40;63.20;;;;;;5043654;28;20499;-79
2021/05/04 09:40:44;;;;;;;7.05;1.63;;;12.60;62.70;;;;;;5037585;28;20272;-80
2021/05/04 09:43:23;;;;;;;9.70;2.10;;;12.70;61.90;;;;;;5039500;28;20257;-79
2021/05/04 09:45:50;;;;;;;4.88;1.80;;;13.10;61.50;;;;;;5039112;28;20208;-80
2021/05/04 09:48:18;;;;;;;3.40;2.13;;;13.60;59.90;;;;;;5041169;28;20260;-79
2021/05/04 09:51:04;;;;;;;6.70;2.00;;;13.80;59.20;;;;;;5038763;28;20189;-80
2021/05/04 09:53:39;;;;;;;3.78;2.17;;;14.00;58.20;;;;;;5052147;28;20190;-80
2021/05/04 09:56:05;;;;;;;4.30;1.70;;;14.10;56.10;;;;;;5038891;28;20209;-79
2021/05/04 09:58:32;;;;;;;3.95;1.92;;;14.00;54.70;;;;;;5039490;28;20188;-80
2021/05/04 10:00:58;;;;;;;14.07;2.65;;;14.10;54.90;;;;;;5054391;28;20193;-80
2021/05/04 10:03:28;;;;;;;4.45;1.80;;;13.80;53.60;;;;;;5054099;28;20224;-79
2021/05/04 10:06:00;;;;;;;3.15;1.77;;;13.80;54.20;;;;;;5056338;28;20192;-79
2021/05/04 10:08:32;;;;;;;3.13;1.73;;;13.50;53.70;;;;;;5055956;28;20166;-80
2021/05/04 10:11:06;;;;;;;5.40;1.90;;;13.40;53.50;;;;;;5055925;28;20178;-80
2021/05/04 10:13:33;;;;;;;5.57;1.95;;;13.50;53.50;;;;;;5043700;28;20193;-80
2021/05/04 10:16:01;;;;;;;2.35;1.75;;;13.30;53.20;;;;;;5048732;28;20162;-80
2021/05/04 10:18:27;;;;;;;2.97;1.40;;;13.10;52.90;;;;;;5047377;28;20168;-79
2021/05/04 10:20:54;;;;;;;2.60;1.50;;;13.10;52.70;;;;;;5036190;28;20273;-79
2021/05/04 10:23:22;;;;;;;9.93;1.48;;;13.00;52.40;;;;;;5038455;28;20672;-80
2021/05/04 10:26:15;;;;;;;1.95;1.30;;;12.90;53.60;;;;;;5038379;28;20170;-80
2021/05/04 10:28:43;;;;;;;1.50;1.40;;;13.00;52.90;;;;;;5038424;28;20162;-80
2021/05/04 10:31:14;;;;;;;4.32;2.00;;;13.10;52.90;;;;;;5037259;28;20190;-80
2021/05/04 10:33:41;;;;;;;6.10;1.92;;;13.20;52.60;;;;;;5041740;28;20196;-79
2021/05/04 10:36:35;;;;;;;5.22;1.77;;;13.20;52.30;;;;;;5042962;28;20182;-80
2021/05/04 10:39:02;;;;;;;11.50;2.70;;;13.50;52.60;;;;;;5049790;28;20189;-79
2021/05/04 10:41:28;;;;;;;5.03;1.50;;;13.40;52.80;;;;;;5054316;28;20269;-79
2021/05/04 10:44:12;;;;;;;2.70;1.55;;;13.30;53.30;;;;;;5052384;28;20178;-79
2021/05/04 10:46:42;;;;;;;3.15;1.67;;;13.40;53.30;;;;;;5055656;28;20198;-80
2021/05/04 10:49:15;;;;;;;7.43;1.90;;;13.40;52.50;;;;;;5056952;28;20239;-79
2021/05/04 10:51:52;;;;;;;2.35;1.40;;;13.40;51.70;;;;;;5051303;28;20182;-80
2021/05/04 10:54:22;;;;;;;2.55;2.05;;;13.30;51.30;;;;;;5055570;28;20200;-79
2021/05/04 10:56:59;;;;;;;2.00;1.83;;;13.20;52.00;;;;;;5055172;28;20205;-79
2021/05/04 10:59:25;;;;;;;5.13;1.98;;;13.40;51.90;;;;;;5046225;28;20218;-80
2021/05/04 11:02:09;;;;;;;6.57;2.17;;;13.70;52.10;;;;;;5043750;28;20220;-80
2021/05/04 11:04:45;;;;;;;4.03;1.40;;;14.00;51.10;;;;;;5048471;28;20173;-82
2021/05/04 11:07:12;;;;;;;3.17;2.10;;;14.20;49.80;;;;;;5052302;28;20209;-82
2021/05/04 11:09:40;;;;;;;7.63;2.30;;;14.20;49.60;;;;;;5054296;28;20213;-82
2021/05/04 11:12:07;;;;;;;7.70;1.77;;;14.00;48.70;;;;;;5056301;28;20212;-82
2021/05/04 11:14:36;;;;;;;7.65;1.77;;;13.80;49.10;;;;;;5053195;28;20174;-82
2021/05/04 11:17:11;;;;;;;2.05;1.67;;;13.90;48.80;;;;;;5054616;28;20174;-83
2021/05/04 11:19:41;;;;;;;3.20;1.70;;;14.00;48.90;;;;;;5045238;28;20173;-82
2021/05/04 11:22:15;;;;;;;1.85;1.70;;;14.00;48.30;;;;;;5054910;28;20209;-82
2021/05/04 11:24:44;;;;;;;4.70;1.60;;;13.80;48.30;;;;;;5053514;28;20174;-82
2021/05/04 11:27:10;;;;;;;4.43;1.98;;;14.00;48.80;;;;;;5042686;28;20209;-82
2021/05/04 11:29:37;;;;;;;3.22;1.35;;;14.10;48.90;;;;;;5038268;28;20174;-82
2021/05/04 11:32:24;;;;;;;4.65;1.83;;;14.30;48.70;;;;;;5037848;28;20204;-83
2021/05/04 11:34:55;;;;;;;2.22;1.60;;;14.50;48.10;;;;;;5042216;28;20184;-81
2021/05/04 11:37:24;;;;;;;3.80;1.80;;;14.60;47.20;;;;;;5047598;28;20182;-81
2021/05/04 11:40:25;;;;;;;3.15;1.58;;;14.70;46.60;;;;;;5042564;28;20182;-83
2021/05/04 11:42:54;;;;;;;2.85;1.70;;;14.70;46.60;;;;;;4975725;28;20207;-83
2021/05/04 11:45:25;;;;;;;6.00;2.05;;;14.60;46.60;;;;;;5018184;28;20178;-82
2021/05/04 11:48:12;;;;;;;4.80;1.77;;;14.40;47.20;;;;;;5027272;28;20210;-83
2021/05/04 11:50:43;;;;;;;5.15;2.00;;;14.40;47.30;;;;;;5017615;28;20221;-83
2021/05/04 11:53:15;;;;;;;6.55;2.25;;;14.40;47.50;;;;;;5018619;28;20198;-83
2021/05/04 11:55:43;;;;;;;12.30;2.33;;;14.40;47.70;;;;;;5017136;28;20186;-83
2021/05/04 11:58:20;;;;;;;3.60;1.67;;;14.30;47.40;;;;;;5014325;28;20186;-83
2021/05/04 12:00:46;;;;;;;2.75;1.50;;;14.40;47.60;;;;;;5014157;28;20552;-85
2021/05/04 12:03:14;;;;;;;6.20;2.10;;;14.40;47.50;;;;;;5015482;28;20214;-85
2021/05/04 12:05:42;;;;;;;6.00;2.40;;;14.30;46.90;;;;;;5017796;28;20418;-84
2021/05/04 12:08:08;;;;;;;5.07;1.90;;;14.30;47.30;;;;;;5017821;28;20214;-85
2021/05/04 12:10:46;;;;;;;3.40;1.65;;;14.30;48.50;;;;;;5017995;28;20174;-84
2021/05/04 12:13:20;;;;;;;7.85;1.60;;;14.30;47.80;;;;;;5021708;28;20198;-85
2021/05/04 12:15:49;;;;;;;5.93;1.98;;;14.50;47.60;;;;;;5017356;28;20182;-86
2021/05/04 12:18:25;;;;;;;5.78;1.75;;;14.60;47.40;;;;;;5036648;28;20212;-87
2021/05/04 12:20:56;;;;;;;8.98;1.95;;;14.70;47.20;;;;;;5033792;28;20186;-87
2021/05/04 12:23:38;;;;;;;2.47;1.73;;;14.70;46.90;;;;;;5039252;28;20202;-85
2021/05/04 12:26:09;;;;;;;8.15;1.80;;;14.50;47.20;;;;;;5034524;28;20201;-84
2021/05/04 12:28:48;;;;;;;2.75;1.65;;;14.50;47.50;;;;;;5035761;28;20638;-85
2021/05/04 12:31:22;;;;;;;8.38;3.05;;;14.60;48.00;;;;;;5032567;28;20693;-86
2021/05/04 12:33:52;;;;;;;11.40;2.65;;;14.50;47.80;;;;;;5029444;28;20206;-86
2021/05/04 12:36:55;;;;;;;2.65;1.48;;;14.20;49.60;;;;;;5016261;28;20610;-85
2021/05/04 12:39:29;;;;;;;8.50;1.80;;;14.10;49.00;;;;;;5018203;28;20690;-83
2021/05/04 12:41:57;;;;;;;4.60;1.48;;;13.90;50.10;;;;;;5028371;28;20198;-84
2021/05/04 12:44:30;;;;;;;5.18;1.70;;;13.80;50.10;;;;;;5038259;28;20177;-82
2021/05/04 12:46:59;;;;;;;6.88;1.58;;;13.80;50.50;;;;;;5037652;28;20209;-84
2021/05/04 12:49:37;;;;;;;6.00;2.72;;;13.90;50.80;;;;;;5038952;28;20227;-85
2021/05/04 12:52:21;;;;;;;14.13;2.80;;;14.00;50.50;;;;;;5039438;28;20225;-84
2021/05/04 12:54:48;;;;;;;10.93;2.75;;;14.10;52.50;;;;;;5038816;28;20178;-85
2021/05/04 12:57:19;;;;;;;11.05;2.50;;;14.00;52.50;;;;;;5041566;28;20536;-84
2021/05/04 12:59:44;;;;;;;9.48;2.10;;;13.90;52.50;;;;;;5041223;28;20177;-84